Time;durP1;ratioP1;P1;durP2;ratioP2;P2;SDS_P1;SDS_P2;PMS_P1;PMS_P2;Temp;Humidity;BMP_temperature;BMP_pressure;BME280_temperature;BME280_humidity;BME280_pressure;Samples;Min_cycle;Max_cycle;Signal;HPM_P1;HPM_P2
2023/12/14 00:00:33;;;;;;;29.53;14.50;;;7.10;99.90;;;;;;4221298;28;20724;-78
2023/12/14 00:02:35;;;;;;;28.90;15.00;;;7.10;99.90;;;;;;4213563;28;20205;-77
2023/12/14 00:04:36;;;;;;;26.90;14.87;;;7.10;99.90;;;;;;4216895;28;20254;-79
2023/12/14 00:06:38;;;;;;;28.43;15.30;;;7.10;99.90;;;;;;4216270;28;20259;-77
2023/12/14 00:08:40;;;;;;;25.40;14.23;;;7.10;99.90;;;;;;4197257;28;20283;-77
2023/12/14 00:10:42;;;;;;;26.47;14.10;;;7.00;99.90;;;;;;4213160;28;20351;-79
2023/12/14 00:12:44;;;;;;;29.87;15.70;;;7.00;99.90;;;;;;4200403;28;20213;-78
2023/12/14 00:14:48;;;;;;;30.33;15.40;;;7.00;99.90;;;;;;4219537;28;20368;-78
2023/12/14 00:16:50;;;;;;;27.83;14.70;;;7.00;99.90;;;;;;4214965;28;20213;-78
2023/12/14 00:18:51;;;;;;;29.80;13.90;;;7.00;99.90;;;;;;4216306;28;20724;-77
2023/12/14 00:20:55;;;;;;;29.70;14.63;;;7.00;99.90;;;;;;4216099;28;20244;-79
2023/12/14 00:22:57;;;;;;;30.00;14.93;;;6.90;99.90;;;;;;4217694;28;20226;-78
2023/12/14 00:24:58;;;;;;;30.10;13.93;;;6.90;99.90;;;;;;4213622;28;20255;-78
2023/12/14 00:27:00;;;;;;;30.30;14.83;;;6.90;99.90;;;;;;4218385;28;20197;-77
2023/12/14 00:29:02;;;;;;;31.67;14.37;;;6.90;99.90;;;;;;4216363;28;20262;-78
2023/12/14 00:31:06;;;;;;;32.00;14.70;;;6.80;99.90;;;;;;4216453;28;20231;-78
2023/12/14 00:33:08;;;;;;;30.57;13.93;;;6.90;99.90;;;;;;4217773;28;20208;-78
2023/12/14 00:35:10;;;;;;;32.47;15.50;;;6.80;99.90;;;;;;4220814;28;20616;-79
2023/12/14 00:37:12;;;;;;;30.40;14.60;;;6.80;99.90;;;;;;4220166;28;20197;-78
2023/12/14 00:39:14;;;;;;;31.67;15.03;;;6.80;99.90;;;;;;4217485;28;20251;-78
2023/12/14 00:41:16;;;;;;;35.97;15.70;;;6.80;99.90;;;;;;4219556;28;20221;-78
2023/12/14 00:43:18;;;;;;;30.30;14.23;;;6.80;99.90;;;;;;4224269;28;20204;-79
2023/12/14 00:45:20;;;;;;;23.77;12.53;;;6.70;99.90;;;;;;4217908;28;20254;-80
2023/12/14 00:47:22;;;;;;;28.57;13.67;;;6.70;99.90;;;;;;4216094;28;20209;-78
2023/12/14 00:49:24;;;;;;;26.73;12.73;;;6.70;99.90;;;;;;4219172;28;20209;-78
2023/12/14 00:51:25;;;;;;;27.43;13.17;;;6.70;99.90;;;;;;4211726;28;20225;-79
2023/12/14 00:53:27;;;;;;;28.27;13.00;;;6.70;99.90;;;;;;4214341;28;20258;-77
2023/12/14 00:55:28;;;;;;;29.93;13.97;;;6.70;99.90;;;;;;4216051;28;20629;-78
2023/12/14 00:57:29;;;;;;;28.70;13.03;;;6.70;99.90;;;;;;4214512;28;20193;-77
2023/12/14 00:59:31;;;;;;;25.80;12.20;;;6.60;99.90;;;;;;4219750;28;20197;-79
2023/12/14 01:01:33;;;;;;;26.97;13.23;;;6.60;99.90;;;;;;4222067;28;20232;-79
2023/12/14 01:03:37;;;;;;;28.27;12.63;;;6.60;99.90;;;;;;4221422;28;20209;-78
2023/12/14 01:05:38;;;;;;;25.80;12.40;;;6.60;99.90;;;;;;4220242;28;20231;-79
2023/12/14 01:07:40;;;;;;;25.77;12.67;;;6.60;99.90;;;;;;4219080;28;20366;-78
2023/12/14 01:09:42;;;;;;;25.23;12.37;;;6.60;99.90;;;;;;4194278;28;20220;-79
2023/12/14 01:11:44;;;;;;;23.20;11.77;;;6.60;99.90;;;;;;4213671;28;20248;-79
2023/12/14 01:13:46;;;;;;;26.67;13.20;;;6.60;99.90;;;;;;4217819;28;20224;-80
2023/12/14 01:15:48;;;;;;;25.60;12.33;;;6.50;99.90;;;;;;4210298;28;20212;-79
2023/12/14 01:17:50;;;;;;;24.40;11.77;;;6.90;99.90;;;;;;4214927;28;20669;-80
2023/12/14 01:19:53;;;;;;;26.63;11.90;;;6.50;99.90;;;;;;4216270;28;20273;-79
2023/12/14 01:21:56;;;;;;;27.83;12.33;;;6.50;99.90;;;;;;4216308;28;20227;-79
2023/12/14 01:23:57;;;;;;;25.13;11.37;;;6.50;99.90;;;;;;4211811;28;20228;-79
2023/12/14 01:25:59;;;;;;;25.60;12.10;;;6.50;99.90;;;;;;4214347;28;20661;-78
2023/12/14 01:28:00;;;;;;;28.37;12.53;;;6.50;99.90;;;;;;4216835;28;20208;-79
2023/12/14 01:30:02;;;;;;;26.30;11.37;;;6.50;99.90;;;;;;4198383;28;20747;-78
2023/12/14 01:32:05;;;;;;;22.77;11.20;;;6.50;99.90;;;;;;4211622;28;20229;-78
2023/12/14 01:34:06;;;;;;;29.70;13.00;;;6.50;99.90;;;;;;4216783;28;20236;-78
2023/12/14 01:36:10;;;;;;;27.87;12.77;;;6.50;99.90;;;;;;4223329;28;20240;-79
2023/12/14 01:38:12;;;;;;;26.90;12.13;;;6.50;99.90;;;;;;4216479;28;20638;-79
2023/12/14 01:40:14;;;;;;;26.07;11.93;;;6.50;99.90;;;;;;4219759;28;20279;-79
2023/12/14 01:42:16;;;;;;;26.77;11.57;;;6.50;99.90;;;;;;4219693;28;20220;-77
2023/12/14 01:44:17;;;;;;;28.70;12.17;;;6.50;99.90;;;;;;4212951;28;20206;-80
2023/12/14 01:46:19;;;;;;;26.30;12.07;;;6.50;99.90;;;;;;4215287;28;20266;-80
2023/12/14 01:48:21;;;;;;;26.80;12.00;;;6.50;99.90;;;;;;4195709;28;20245;-80
2023/12/14 01:50:23;;;;;;;26.43;11.70;;;6.50;99.90;;;;;;4210021;28;20229;-79
2023/12/14 01:52:26;;;;;;;25.10;10.83;;;6.50;99.90;;;;;;4215320;28;20255;-77
2023/12/14 01:54:28;;;;;;;27.27;11.60;;;6.60;99.90;;;;;;4215765;28;20225;-79
2023/12/14 01:56:30;;;;;;;27.60;11.80;;;6.50;99.90;;;;;;4215334;28;20209;-77
2023/12/14 01:58:32;;;;;;;24.70;11.70;;;6.50;99.90;;;;;;4214864;28;20278;-78
2023/12/14 02:00:40;;;;;;;26.80;11.53;;;6.50;99.90;;;;;;4193521;28;20299;-79
2023/12/14 02:02:41;;;;;;;31.87;12.30;;;6.50;99.90;;;;;;4222538;28;20211;-79
2023/12/14 02:04:43;;;;;;;27.60;11.63;;;6.50;99.90;;;;;;4216548;28;20193;-77
2023/12/14 02:06:45;;;;;;;30.37;12.50;;;6.50;99.90;;;;;;4213275;28;20624;-79
2023/12/14 02:08:48;;;;;;;29.17;11.53;;;6.50;99.90;;;;;;4214835;28;20258;-79
2023/12/14 02:10:50;;;;;;;23.57;10.00;;;6.40;99.90;;;;;;4216993;28;20221;-80
2023/12/14 02:12:52;;;;;;;25.23;10.80;;;6.70;99.90;;;;;;4215912;28;20201;-79
2023/12/14 02:14:56;;;;;;;28.33;11.77;;;6.40;99.90;;;;;;4217601;28;21024;-79
2023/12/14 02:16:58;;;;;;;28.57;12.27;;;6.80;99.90;;;;;;4218715;28;20300;-78
2023/12/14 02:19:00;;;;;;;32.40;12.87;;;6.40;99.90;;;;;;4215711;28;20336;-79
2023/12/14 02:21:02;;;;;;;32.30;12.53;;;6.50;99.90;;;;;;4215038;28;20233;-79
2023/12/14 02:23:06;;;;;;;32.00;11.67;;;6.40;99.90;;;;;;4214192;28;20736;-78
2023/12/14 02:25:08;;;;;;;30.83;11.87;;;6.40;99.90;;;;;;4216828;28;20917;-78
2023/12/14 02:27:10;;;;;;;29.63;11.83;;;6.40;99.90;;;;;;4216997;28;20213;-79
2023/12/14 02:29:12;;;;;;;35.73;12.47;;;6.40;99.90;;;;;;4217874;28;20271;-79
2023/12/14 02:31:14;;;;;;;31.77;12.43;;;6.40;99.90;;;;;;4216471;28;20638;-80
2023/12/14 02:33:16;;;;;;;35.70;12.47;;;6.40;99.90;;;;;;4228602;28;20213;-79
2023/12/14 02:35:19;;;;;;;30.93;11.93;;;6.40;99.90;;;;;;4217092;28;20286;-80
2023/12/14 02:37:20;;;;;;;35.07;12.67;;;6.40;99.90;;;;;;4212987;28;20216;-79
2023/12/14 02:39:24;;;;;;;39.43;13.17;;;6.40;99.90;;;;;;4217555;28;20205;-79
2023/12/14 02:41:26;;;;;;;32.47;12.67;;;6.40;99.90;;;;;;4221040;28;20225;-78
2023/12/14 02:43:28;;;;;;;35.03;12.67;;;6.40;99.90;;;;;;4217557;28;20258;-79
2023/12/14 02:45:29;;;;;;;31.30;13.17;;;6.40;99.90;;;;;;4221170;28;20428;-79
2023/12/14 02:47:31;;;;;;;29.17;12.30;;;6.40;99.90;;;;;;4220372;28;20468;-77
2023/12/14 02:49:33;;;;;;;32.97;12.37;;;6.40;99.90;;;;;;4216405;28;20309;-78
2023/12/14 02:51:35;;;;;;;31.37;12.60;;;6.40;99.90;;;;;;4218461;28;20228;-81
2023/12/14 02:53:36;;;;;;;36.63;12.77;;;6.40;99.90;;;;;;4215606;28;20258;-80
2023/12/14 02:55:39;;;;;;;32.00;11.53;;;6.40;99.90;;;;;;4214202;28;20708;-79
2023/12/14 02:57:41;;;;;;;30.43;12.27;;;6.40;99.90;;;;;;4215338;28;20205;-79
2023/12/14 02:59:42;;;;;;;29.30;11.73;;;6.40;99.90;;;;;;4217914;28;20204;-79
2023/12/14 03:01:44;;;;;;;35.97;12.70;;;6.30;99.90;;;;;;4219426;28;20886;-79
2023/12/14 03:03:46;;;;;;;31.93;11.73;;;6.40;99.90;;;;;;4212376;28;20213;-79
2023/12/14 03:05:49;;;;;;;30.50;10.97;;;6.40;99.90;;;;;;4218670;28;20205;-79
2023/12/14 03:07:50;;;;;;;27.20;11.63;;;6.30;99.90;;;;;;4213545;28;20262;-79
2023/12/14 03:09:52;;;;;;;26.77;10.90;;;6.30;99.90;;;;;;4220738;28;20716;-78
2023/12/14 03:11:55;;;;;;;24.10;9.57;;;6.30;99.90;;;;;;4221474;28;20205;-79
2023/12/14 03:13:57;;;;;;;24.23;9.37;;;6.30;99.90;;;;;;4216506;28;20503;-77
2023/12/14 03:16:00;;;;;;;20.43;8.83;;;6.30;99.90;;;;;;4216416;28;20278;-78
2023/12/14 03:18:03;;;;;;;21.97;10.03;;;6.30;99.90;;;;;;4216254;28;20198;-79
2023/12/14 03:20:06;;;;;;;18.17;8.27;;;6.20;99.90;;;;;;4198633;28;20483;-78
2023/12/14 03:22:08;;;;;;;24.80;9.00;;;6.20;99.90;;;;;;4216684;28;20209;-80
2023/12/14 03:24:09;;;;;;;22.93;9.53;;;6.20;99.90;;;;;;4215568;28;20213;-80
2023/12/14 03:26:11;;;;;;;20.80;8.70;;;6.20;99.90;;;;;;4215386;28;20275;-78
2023/12/14 03:28:14;;;;;;;27.23;8.97;;;6.20;99.90;;;;;;4219800;28;20216;-78
2023/12/14 03:30:15;;;;;;;23.07;8.87;;;6.10;99.90;;;;;;4214899;28;20293;-80
2023/12/14 03:32:17;;;;;;;23.90;8.87;;;6.10;99.90;;;;;;4218036;28;20201;-79
2023/12/14 03:34:19;;;;;;;22.10;9.23;;;6.10;99.90;;;;;;4218590;28;20217;-78
2023/12/14 03:36:22;;;;;;;22.57;9.60;;;6.20;99.90;;;;;;4219633;28;20261;-79
2023/12/14 03:38:23;;;;;;;23.73;10.10;;;6.10;99.90;;;;;;4216673;28;20237;-80
2023/12/14 03:40:25;;;;;;;22.30;8.67;;;6.10;99.90;;;;;;4218107;28;20232;-78
2023/12/14 03:42:27;;;;;;;22.93;9.70;;;6.10;99.90;;;;;;4219825;28;20282;-78
2023/12/14 03:44:30;;;;;;;19.83;9.40;;;6.10;99.90;;;;;;4214401;28;20449;-78
2023/12/14 03:46:32;;;;;;;21.17;9.60;;;6.10;99.90;;;;;;4217337;28;20212;-80
2023/12/14 03:48:34;;;;;;;22.93;10.10;;;6.10;99.90;;;;;;4226262;28;20501;-81
2023/12/14 03:50:36;;;;;;;21.30;9.13;;;6.10;99.90;;;;;;4200894;28;20777;-78
2023/12/14 03:52:38;;;;;;;26.23;11.27;;;6.10;99.90;;;;;;4199227;28;20271;-79
2023/12/14 03:54:40;;;;;;;29.60;11.57;;;6.00;99.90;;;;;;4214618;28;20275;-78
2023/12/14 03:56:42;;;;;;;25.93;10.63;;;6.00;99.90;;;;;;4216110;28;20205;-79
2023/12/14 03:58:44;;;;;;;22.67;10.67;;;6.00;99.90;;;;;;4215413;28;20451;-79
2023/12/14 04:00:47;;;;;;;25.97;10.80;;;6.10;99.90;;;;;;4218512;28;20510;-79
2023/12/14 04:02:49;;;;;;;21.23;10.13;;;6.00;99.90;;;;;;4214454;28;20499;-79
2023/12/14 04:04:51;;;;;;;24.47;10.80;;;6.00;99.90;;;;;;4214542;28;20467;-79
2023/12/14 04:06:53;;;;;;;23.50;10.53;;;6.00;99.90;;;;;;4215777;28;20451;-78
2023/12/14 04:08:55;;;;;;;19.90;9.73;;;6.00;99.90;;;;;;4218899;28;20442;-79
2023/12/14 04:10:57;;;;;;;23.73;10.50;;;6.00;99.90;;;;;;4216581;28;21042;-79
2023/12/14 04:12:59;;;;;;;24.90;10.23;;;6.00;99.90;;;;;;4212126;28;20447;-80
2023/12/14 04:15:01;;;;;;;24.93;10.73;;;6.20;99.90;;;;;;4216108;28;21178;-82
2023/12/14 04:17:04;;;;;;;25.93;10.10;;;6.00;99.90;;;;;;4218564;28;20216;-78
2023/12/14 04:19:09;;;;;;;27.97;11.07;;;6.00;99.90;;;;;;4214743;28;21536;-78
2023/12/14 04:21:11;;;;;;;23.37;10.03;;;6.00;99.90;;;;;;4217646;28;20221;-79
2023/12/14 04:23:13;;;;;;;25.10;11.07;;;6.00;99.90;;;;;;4214964;28;20829;-78
2023/12/14 04:25:15;;;;;;;22.67;10.30;;;6.00;99.90;;;;;;4214532;28;20447;-79
2023/12/14 04:27:18;;;;;;;22.80;10.27;;;5.90;99.90;;;;;;4217113;28;20442;-78
2023/12/14 04:29:20;;;;;;;27.23;10.70;;;6.40;99.90;;;;;;4214066;28;20738;-78
2023/12/14 04:31:22;;;;;;;27.63;11.53;;;6.00;99.90;;;;;;4214789;28;20463;-79
2023/12/14 04:33:25;;;;;;;29.43;12.47;;;5.90;99.90;;;;;;4214788;28;20457;-79
2023/12/14 04:35:27;;;;;;;30.47;12.17;;;5.90;99.90;;;;;;4214889;28;20474;-81
2023/12/14 04:37:30;;;;;;;26.00;12.83;;;5.90;99.90;;;;;;4222833;28;20455;-80
2023/12/14 04:39:32;;;;;;;24.03;11.53;;;5.90;99.90;;;;;;4225741;28;20440;-80
2023/12/14 04:41:34;;;;;;;26.33;11.97;;;5.90;99.90;;;;;;4217374;28;20516;-80
2023/12/14 04:43:36;;;;;;;24.77;11.53;;;5.80;99.90;;;;;;4223878;28;20442;-79
2023/12/14 04:45:37;;;;;;;22.97;10.83;;;5.80;99.90;;;;;;4217201;28;21131;-78
2023/12/14 04:47:39;;;;;;;21.80;10.97;;;5.80;99.90;;;;;;4223667;28;20454;-77
2023/12/14 04:49:43;;;;;;;21.47;10.77;;;5.80;99.90;;;;;;4215653;28;20844;-78
2023/12/14 04:51:45;;;;;;;23.10;10.47;;;5.80;99.90;;;;;;4220364;28;20531;-78
2023/12/14 04:53:47;;;;;;;21.03;10.50;;;5.70;99.90;;;;;;4218541;28;20503;-80
2023/12/14 04:55:49;;;;;;;18.83;9.80;;;5.70;99.90;;;;;;4216243;28;20482;-79
2023/12/14 04:57:51;;;;;;;20.77;10.07;;;6.10;99.90;;;;;;4214572;28;20450;-78
2023/12/14 04:59:53;;;;;;;19.27;10.07;;;5.80;99.90;;;;;;4217233;28;20442;-79
2023/12/14 05:01:55;;;;;;;18.80;9.60;;;5.70;99.90;;;;;;4219815;28;20460;-78
2023/12/14 05:03:57;;;;;;;19.53;8.90;;;5.70;99.90;;;;;;4218300;28;20443;-77
2023/12/14 05:06:00;;;;;;;20.27;9.40;;;5.60;99.90;;;;;;4216208;28;21012;-79
2023/12/14 05:08:02;;;;;;;19.63;9.57;;;5.60;99.90;;;;;;4215454;28;20442;-79
2023/12/14 05:10:06;;;;;;;17.20;8.20;;;6.00;99.90;;;;;;4212401;28;20492;-81
2023/12/14 05:12:08;;;;;;;18.63;8.50;;;5.60;99.90;;;;;;4213099;28;20454;-79
2023/12/14 05:14:10;;;;;;;19.30;8.67;;;5.60;99.90;;;;;;4215037;28;20518;-78
2023/12/14 05:16:14;;;;;;;16.50;8.07;;;5.50;99.90;;;;;;4213419;28;20512;-79
2023/12/14 05:18:15;;;;;;;18.50;8.33;;;5.60;99.90;;;;;;4216323;28;20488;-78
2023/12/14 05:20:17;;;;;;;15.50;7.43;;;5.50;99.90;;;;;;4214559;28;21013;-79
2023/12/14 05:22:20;;;;;;;15.13;7.73;;;5.50;99.90;;;;;;4213146;28;20212;-79
2023/12/14 05:24:22;;;;;;;14.10;7.33;;;5.90;99.90;;;;;;4212742;28;20438;-77
2023/12/14 05:26:27;;;;;;;15.57;7.60;;;5.50;99.90;;;;;;4214710;28;20189;-78
2023/12/14 05:28:28;;;;;;;15.53;7.70;;;5.50;99.90;;;;;;4213930;28;21013;-78
2023/12/14 05:30:30;;;;;;;14.87;7.23;;;5.50;99.90;;;;;;4215474;28;21563;-77
2023/12/14 05:32:32;;;;;;;16.43;8.07;;;5.40;99.90;;;;;;4212340;28;20436;-79
2023/12/14 05:34:34;;;;;;;15.90;7.80;;;5.40;99.90;;;;;;4216619;28;21083;-78
2023/12/14 05:36:36;;;;;;;16.20;7.60;;;5.90;99.90;;;;;;4213126;28;20981;-77
2023/12/14 05:38:41;;;;;;;17.20;7.63;;;5.40;99.90;;;;;;4211954;28;20291;-80
2023/12/14 05:40:43;;;;;;;14.57;7.60;;;5.40;99.90;;;;;;4216873;28;20235;-80
2023/12/14 05:42:45;;;;;;;16.93;8.13;;;5.30;99.90;;;;;;4212551;28;20488;-80
2023/12/14 05:44:46;;;;;;;15.70;8.27;;;5.30;99.90;;;;;;4218105;28;20530;-78
2023/12/14 05:46:48;;;;;;;16.97;8.20;;;5.30;99.90;;;;;;4215459;28;20528;-79
2023/12/14 05:48:50;;;;;;;14.27;6.77;;;5.30;99.90;;;;;;4215589;28;20439;-80
2023/12/14 05:50:52;;;;;;;13.93;7.10;;;5.30;99.90;;;;;;4215058;28;20487;-78
2023/12/14 05:52:55;;;;;;;14.57;7.00;;;5.30;99.90;;;;;;4218652;28;20488;-78
2023/12/14 05:54:58;;;;;;;12.80;7.03;;;5.30;99.90;;;;;;4222815;28;20813;-79
2023/12/14 05:57:00;;;;;;;13.27;7.03;;;5.30;99.90;;;;;;4218098;28;20467;-78
2023/12/14 05:59:01;;;;;;;15.57;7.70;;;5.20;99.90;;;;;;4223466;28;20454;-80
2023/12/14 06:01:03;;;;;;;12.67;7.00;;;5.20;99.90;;;;;;4219707;28;20466;-77
2023/12/14 06:03:06;;;;;;;14.13;7.17;;;5.20;99.90;;;;;;4222467;28;20200;-77
2023/12/14 06:05:09;;;;;;;11.53;6.57;;;5.20;99.90;;;;;;4220848;28;20472;-78
2023/12/14 06:07:11;;;;;;;15.73;8.17;;;5.20;99.90;;;;;;4221432;28;20521;-78
2023/12/14 06:09:13;;;;;;;11.77;6.63;;;5.20;99.90;;;;;;4220950;28;20463;-80
2023/12/14 06:11:16;;;;;;;12.60;7.07;;;5.10;99.90;;;;;;4221266;28;21008;-80
2023/12/14 06:13:17;;;;;;;9.90;6.17;;;5.10;99.90;;;;;;4220643;28;20446;-78
2023/12/14 06:15:22;;;;;;;13.30;7.17;;;5.40;99.90;;;;;;4221899;28;20450;-80
2023/12/14 06:17:25;;;;;;;10.90;6.67;;;5.10;99.90;;;;;;4221606;28;20577;-82
2023/12/14 06:19:26;;;;;;;14.63;7.13;;;5.10;99.90;;;;;;4224253;28;20445;-78
2023/12/14 06:21:28;;;;;;;12.40;6.67;;;5.10;99.90;;;;;;4221040;28;20547;-78
2023/12/14 06:23:30;;;;;;;13.17;7.07;;;5.10;99.90;;;;;;4220048;28;20438;-80
2023/12/14 06:25:31;;;;;;;13.97;7.90;;;5.10;99.90;;;;;;4219193;28;20491;-77
2023/12/14 06:27:35;;;;;;;13.47;6.90;;;5.10;99.90;;;;;;4221209;28;20842;-78
2023/12/14 06:29:37;;;;;;;13.70;6.97;;;5.00;99.90;;;;;;4222669;28;20265;-78
2023/12/14 06:31:40;;;;;;;14.37;7.63;;;5.00;99.90;;;;;;4225845;28;21255;-80
2023/12/14 06:33:42;;;;;;;15.93;7.73;;;5.00;99.90;;;;;;4224505;28;20442;-78
2023/12/14 06:35:44;;;;;;;19.13;8.90;;;5.00;99.90;;;;;;4224398;28;20481;-77
2023/12/14 06:37:46;;;;;;;16.60;8.03;;;5.00;99.90;;;;;;4218374;28;20461;-76
2023/12/14 06:39:47;;;;;;;16.27;8.27;;;5.00;99.90;;;;;;4218394;28;20802;-76
2023/12/14 06:41:49;;;;;;;16.77;8.27;;;5.00;99.90;;;;;;4216484;28;20481;-81
2023/12/14 06:43:53;;;;;;;17.53;8.53;;;5.00;99.90;;;;;;4217679;28;20941;-75
2023/12/14 06:45:55;;;;;;;17.53;8.60;;;4.90;99.90;;;;;;4197298;28;20455;-76
2023/12/14 06:47:57;;;;;;;16.40;9.03;;;4.90;99.90;;;;;;4216753;28;20502;-80
2023/12/14 06:49:59;;;;;;;15.30;7.73;;;4.90;99.90;;;;;;4217388;28;20470;-77
2023/12/14 06:52:01;;;;;;;17.40;8.27;;;4.90;99.90;;;;;;4215785;28;20875;-76
2023/12/14 06:54:06;;;;;;;17.27;8.50;;;4.90;99.90;;;;;;4217580;28;20443;-76
2023/12/14 06:56:10;;;;;;;20.80;9.33;;;4.90;99.90;;;;;;4214572;28;20475;-77
2023/12/14 06:58:12;;;;;;;18.03;9.47;;;4.90;99.90;;;;;;4216861;28;20439;-77
2023/12/14 07:00:15;;;;;;;18.77;9.57;;;4.80;99.90;;;;;;4217367;28;20233;-76
2023/12/14 07:02:17;;;;;;;17.97;9.13;;;4.80;99.90;;;;;;4216687;28;21131;-76
2023/12/14 07:04:19;;;;;;;18.47;9.67;;;4.80;99.90;;;;;;4216566;28;20447;-76
2023/12/14 07:06:21;;;;;;;18.57;9.20;;;4.80;99.90;;;;;;4218644;28;20430;-80
2023/12/14 07:08:24;;;;;;;16.80;8.40;;;4.80;99.90;;;;;;4219692;28;20767;-79
2023/12/14 07:10:26;;;;;;;18.40;9.50;;;4.80;99.90;;;;;;4219318;28;20474;-79
2023/12/14 07:12:27;;;;;;;20.43;8.57;;;4.80;99.90;;;;;;4217247;28;20466;-79
2023/12/14 07:14:29;;;;;;;18.03;8.40;;;4.70;99.90;;;;;;4218184;28;20460;-76
2023/12/14 07:16:33;;;;;;;15.30;7.60;;;4.70;99.90;;;;;;4219718;28;20485;-78
2023/12/14 07:18:34;;;;;;;18.27;8.27;;;4.70;99.90;;;;;;4221508;28;20885;-79
2023/12/14 07:20:36;;;;;;;12.17;6.77;;;4.70;99.90;;;;;;4225077;28;20477;-78
2023/12/14 07:22:38;;;;;;;15.27;7.93;;;4.60;99.90;;;;;;4217193;28;20438;-78
2023/12/14 07:24:40;;;;;;;15.70;7.50;;;4.60;99.90;;;;;;4220035;28;20857;-78
2023/12/14 07:26:42;;;;;;;14.23;7.70;;;4.60;99.90;;;;;;4217758;28;20504;-80
2023/12/14 07:28:43;;;;;;;20.53;8.03;;;4.60;99.90;;;;;;4216486;28;20485;-80
2023/12/14 07:30:46;;;;;;;18.97;9.20;;;4.60;99.90;;;;;;4216427;28;20986;-77
2023/12/14 07:32:50;;;;;;;18.90;8.83;;;5.50;99.90;;;;;;4215572;28;20238;-77
2023/12/14 07:34:52;;;;;;;26.00;10.80;;;4.60;99.90;;;;;;4216592;28;20524;-77
2023/12/14 07:36:54;;;;;;;26.73;11.40;;;4.50;99.90;;;;;;4218520;28;20527;-81
2023/12/14 07:38:57;;;;;;;28.93;11.77;;;4.50;99.90;;;;;;4219285;28;20472;-81
2023/12/14 07:40:58;;;;;;;27.00;12.23;;;4.50;99.90;;;;;;4216870;28;20478;-78
2023/12/14 07:43:00;;;;;;;24.50;11.30;;;4.50;99.90;;;;;;4217240;28;20445;-76
2023/12/14 07:45:02;;;;;;;22.57;11.10;;;4.40;99.90;;;;;;4220023;28;21022;-76
2023/12/14 07:47:04;;;;;;;23.83;11.47;;;4.40;99.90;;;;;;4215603;28;20446;-78
2023/12/14 07:49:07;;;;;;;22.23;10.33;;;4.40;99.90;;;;;;4215894;28;20442;-76
2023/12/14 07:51:09;;;;;;;25.33;11.00;;;4.30;99.90;;;;;;4214806;28;20477;-77
2023/12/14 07:53:11;;;;;;;30.87;11.40;;;4.40;99.90;;;;;;4215429;28;20678;-76
2023/12/14 07:55:14;;;;;;;24.73;11.13;;;4.30;99.90;;;;;;4218760;28;20453;-78
2023/12/14 07:57:15;;;;;;;22.30;10.73;;;4.30;99.90;;;;;;4218901;28;20474;-76
2023/12/14 07:59:17;;;;;;;21.47;10.67;;;4.60;99.90;;;;;;4221234;28;20445;-79
2023/12/14 08:01:20;;;;;;;23.27;10.17;;;4.20;99.90;;;;;;4220940;28;20293;-80
2023/12/14 08:03:28;;;;;;;21.93;10.40;;;4.30;99.90;;;;;;4221922;28;20483;-78
2023/12/14 08:05:30;;;;;;;21.30;9.93;;;4.30;99.90;;;;;;4213330;28;21890;-76
2023/12/14 08:07:32;;;;;;;21.97;9.67;;;4.30;99.90;;;;;;4218489;28;20537;-77
2023/12/14 08:09:34;;;;;;;20.20;9.80;;;4.60;99.90;;;;;;4216028;28;20453;-79
2023/12/14 08:11:35;;;;;;;23.10;9.73;;;4.30;99.90;;;;;;4216102;28;20481;-78
2023/12/14 08:13:37;;;;;;;21.03;9.63;;;4.50;99.90;;;;;;4214414;28;20948;-79
2023/12/14 08:15:40;;;;;;;19.60;9.23;;;4.30;99.90;;;;;;4214245;28;20223;-80
2023/12/14 08:17:43;;;;;;;21.97;9.77;;;4.30;99.90;;;;;;4215327;28;20450;-77
2023/12/14 08:19:45;;;;;;;19.30;9.40;;;4.20;99.90;;;;;;4216684;28;20510;-78
2023/12/14 08:21:48;;;;;;;20.27;9.83;;;4.20;99.90;;;;;;4213235;28;20523;-78
2023/12/14 08:23:50;;;;;;;22.20;10.37;;;4.10;99.90;;;;;;4213873;28;20547;-79
2023/12/14 08:25:52;;;;;;;17.90;9.00;;;4.20;99.90;;;;;;4213322;28;20460;-78
2023/12/14 08:27:54;;;;;;;19.83;9.67;;;4.20;99.90;;;;;;4215256;28;20520;-78
2023/12/14 08:29:59;;;;;;;19.67;9.17;;;4.30;99.90;;;;;;4212640;28;20492;-76
2023/12/14 08:32:01;;;;;;;23.73;10.73;;;4.10;99.90;;;;;;4212653;28;20444;-75
2023/12/14 08:34:03;;;;;;;19.10;9.77;;;4.20;99.90;;;;;;4214380;28;20458;-76
2023/12/14 08:36:06;;;;;;;20.33;10.60;;;4.20;99.90;;;;;;4211417;28;20482;-76
2023/12/14 08:38:10;;;;;;;25.67;11.43;;;4.20;99.90;;;;;;4216021;28;20454;-76
2023/12/14 08:40:13;;;;;;;27.13;12.30;;;4.20;99.90;;;;;;4213187;28;20543;-75
2023/12/14 08:42:15;;;;;;;24.20;11.87;;;4.30;99.90;;;;;;4212644;28;20442;-77
2023/12/14 08:44:18;;;;;;;26.17;12.00;;;4.30;99.90;;;;;;4210797;28;20446;-77
2023/12/14 08:46:20;;;;;;;28.23;12.97;;;4.30;99.90;;;;;;4211642;28;20446;-77
2023/12/14 08:48:22;;;;;;;27.33;13.00;;;4.30;99.90;;;;;;4210017;28;20462;-77
2023/12/14 08:50:26;;;;;;;23.67;11.77;;;4.30;99.90;;;;;;4212603;28;21026;-77
2023/12/14 08:52:28;;;;;;;23.67;11.63;;;4.30;99.90;;;;;;4210616;28;20442;-76
2023/12/14 08:54:33;;;;;;;21.30;11.03;;;4.30;99.90;;;;;;4210308;28;20440;-76
2023/12/14 08:56:35;;;;;;;21.57;10.67;;;4.30;99.90;;;;;;4211825;28;20478;-75
2023/12/14 08:58:37;;;;;;;43.00;15.00;;;4.30;99.90;;;;;;4212317;28;20529;-76
2023/12/14 09:00:39;;;;;;;33.90;13.80;;;4.60;99.90;;;;;;4209917;28;20468;-76
2023/12/14 09:02:41;;;;;;;29.20;11.67;;;4.30;99.90;;;;;;4211910;28;20451;-76
2023/12/14 09:04:44;;;;;;;23.07;11.27;;;4.30;99.90;;;;;;4211165;28;20482;-77
2023/12/14 09:06:46;;;;;;;26.47;11.17;;;4.30;99.90;;;;;;4211217;28;20455;-76
2023/12/14 09:08:48;;;;;;;22.70;11.13;;;4.30;99.90;;;;;;4212123;28;20202;-76
2023/12/14 09:10:54;;;;;;;24.03;10.93;;;4.30;99.90;;;;;;4208658;28;22456;-77
2023/12/14 09:12:56;;;;;;;23.50;10.93;;;4.20;99.90;;;;;;4193961;28;20602;-77
2023/12/14 09:14:58;;;;;;;20.37;9.77;;;4.30;99.90;;;;;;4212303;28;20439;-77
2023/12/14 09:16:59;;;;;;;23.03;10.47;;;4.20;99.90;;;;;;4211565;28;21016;-77
2023/12/14 09:19:01;;;;;;;21.10;10.30;;;4.30;99.90;;;;;;4211817;28;20446;-77
2023/12/14 09:21:04;;;;;;;23.30;10.37;;;4.20;99.90;;;;;;4211798;28;20678;-77
2023/12/14 09:23:06;;;;;;;20.83;10.47;;;4.20;99.90;;;;;;4212247;28;20478;-77
2023/12/14 09:25:09;;;;;;;20.20;9.93;;;4.20;99.90;;;;;;4211306;28;21005;-77
2023/12/14 09:27:12;;;;;;;19.73;9.73;;;4.30;99.90;;;;;;4212714;28;21021;-76
2023/12/14 09:29:15;;;;;;;19.07;9.37;;;4.30;99.90;;;;;;4208626;28;20457;-76
2023/12/14 09:31:16;;;;;;;18.87;9.17;;;4.30;99.90;;;;;;4209134;28;20527;-76
2023/12/14 09:33:19;;;;;;;19.23;8.77;;;4.30;99.90;;;;;;4211271;28;20877;-76
2023/12/14 09:35:21;;;;;;;17.30;8.17;;;4.30;99.90;;;;;;4211233;28;20445;-75
2023/12/14 09:37:23;;;;;;;17.80;9.17;;;4.30;99.90;;;;;;4211256;28;20481;-76
2023/12/14 09:39:25;;;;;;;16.20;7.20;;;4.30;99.90;;;;;;4210732;28;20469;-75
2023/12/14 09:41:27;;;;;;;13.93;7.50;;;4.30;99.90;;;;;;4208682;28;20457;-76
2023/12/14 09:43:31;;;;;;;14.60;7.40;;;4.30;99.90;;;;;;4212125;28;20569;-76
2023/12/14 09:45:33;;;;;;;13.80;7.03;;;4.30;99.90;;;;;;4211744;28;20453;-76
2023/12/14 09:47:35;;;;;;;15.80;8.00;;;4.20;99.90;;;;;;4210266;28;20523;-76
2023/12/14 09:49:40;;;;;;;15.57;7.67;;;4.30;99.90;;;;;;4214468;28;21165;-79
2023/12/14 09:51:43;;;;;;;18.07;8.57;;;4.30;99.90;;;;;;4215345;28;20549;-80
2023/12/14 09:53:44;;;;;;;16.10;8.20;;;4.20;99.90;;;;;;4218454;28;20953;-81
2023/12/14 09:55:46;;;;;;;20.67;10.03;;;4.20;99.90;;;;;;4214286;28;20462;-79
2023/12/14 09:57:48;;;;;;;17.40;8.83;;;4.30;99.90;;;;;;4216209;28;20964;-80
2023/12/14 09:59:54;;;;;;;19.97;9.97;;;4.20;99.90;;;;;;4216917;28;20442;-79
2023/12/14 10:02:10;;;;;;;20.27;9.30;;;4.20;99.90;;;;;;4218599;28;20452;-80
2023/12/14 10:04:13;;;;;;;23.27;10.07;;;4.20;99.90;;;;;;4214931;28;20447;-81
2023/12/14 10:06:17;;;;;;;18.57;8.43;;;4.20;99.90;;;;;;4214574;28;20461;-80
2023/12/14 10:08:20;;;;;;;25.40;9.73;;;4.20;99.90;;;;;;4216991;28;20448;-80
2023/12/14 10:10:29;;;;;;;25.83;8.37;;;4.20;99.90;;;;;;4219579;28;20517;-81
2023/12/14 10:12:31;;;;;;;18.33;7.83;;;4.20;99.90;;;;;;4196355;28;20474;-80
2023/12/14 10:14:34;;;;;;;36.07;10.13;;;4.20;99.90;;;;;;4216271;28;20438;-79
2023/12/14 10:16:37;;;;;;;15.43;7.37;;;4.20;99.90;;;;;;4200688;28;20545;-80
2023/12/14 10:18:39;;;;;;;17.17;7.67;;;4.20;99.90;;;;;;4201705;28;20559;-80
2023/12/14 10:20:41;;;;;;;15.63;7.67;;;4.20;99.90;;;;;;4217174;28;20860;-80
2023/12/14 10:22:44;;;;;;;13.33;7.37;;;4.20;99.90;;;;;;4221779;28;20434;-80
2023/12/14 10:24:48;;;;;;;13.73;7.90;;;4.20;99.90;;;;;;4219232;28;20472;-80
2023/12/14 10:26:52;;;;;;;14.93;7.80;;;4.10;99.90;;;;;;4218456;28;20878;-80
2023/12/14 10:28:54;;;;;;;15.60;7.93;;;4.10;99.90;;;;;;4218110;28;20454;-80
2023/12/14 10:30:56;;;;;;;15.63;7.70;;;4.20;99.90;;;;;;4217401;28;20477;-81